Time;durP1;ratioP1;P1;durP2;ratioP2;P2;SDS_P1;SDS_P2;PMS_P1;PMS_P2;Temp;Humidity;BMP_temperature;BMP_pressure;BME280_temperature;BME280_humidity;BME280_pressure;Samples;Min_cycle;Max_cycle;Signal;HPM_P1;HPM_P2
2024/02/27 00:00:17;;;;;;;17.63;11.95;;;;;;;6.33;50.63;100861.59;5026528;28;20096;-72
2024/02/27 00:02:45;;;;;;;18.83;12.82;;;;;;;6.34;50.82;100866.06;5036528;23;20127;-77
2024/02/27 00:05:13;;;;;;;17.50;12.32;;;;;;;6.34;50.70;100866.06;5030061;28;20522;-77
2024/02/27 00:07:41;;;;;;;17.42;12.68;;;;;;;6.34;50.75;100866.06;5034168;28;20045;-77
2024/02/27 00:10:13;;;;;;;16.60;11.80;;;;;;;6.35;50.65;100867.81;5036563;28;20156;-77
2024/02/27 00:12:41;;;;;;;17.98;12.27;;;;;;;6.34;51.10;100863.34;5034639;28;20053;-75
2024/02/27 00:15:10;;;;;;;18.20;12.43;;;;;;;6.35;50.64;100867.81;5029252;28;20041;-75
2024/02/27 00:17:38;;;;;;;18.25;12.25;;;;;;;6.35;51.19;100871.41;5048107;28;20073;-75
2024/02/27 00:20:07;;;;;;;19.45;12.95;;;;;;;6.37;50.88;100869.44;5037836;28;20048;-74
2024/02/27 00:22:35;;;;;;;18.10;12.85;;;;;;;6.37;50.66;100868.56;5042572;28;20056;-74
2024/02/27 00:25:04;;;;;;;20.85;13.55;;;;;;;6.37;51.12;100866.72;5029260;28;20060;-75
2024/02/27 00:27:33;;;;;;;19.15;12.73;;;;;;;6.38;50.87;100868.44;5046021;28;20137;-75
2024/02/27 00:30:02;;;;;;;19.13;13.02;;;;;;;6.37;50.88;100861.28;5042617;28;20412;-76
2024/02/27 00:32:30;;;;;;;18.50;13.30;;;;;;;6.37;50.54;100874.88;5054627;28;20530;-76
2024/02/27 00:34:58;;;;;;;17.80;12.25;;;;;;;6.38;51.09;100871.16;5032058;28;20037;-76
2024/02/27 00:37:26;;;;;;;18.48;12.68;;;;;;;6.38;50.92;100875.75;5048573;28;20041;-75
2024/02/27 00:39:54;;;;;;;18.77;12.38;;;;;;;6.37;50.66;100883.03;5055110;28;20476;-76
2024/02/27 00:42:21;;;;;;;20.02;13.32;;;;;;;6.39;50.71;100881.06;5029226;28;20033;-75
2024/02/27 00:44:51;;;;;;;20.58;13.45;;;;;;;6.40;50.75;100880.09;5050061;28;20033;-75
2024/02/27 00:47:18;;;;;;;19.50;12.77;;;;;;;6.39;50.43;100882.91;5048378;28;20047;-75
2024/02/27 00:49:47;;;;;;;19.77;13.07;;;;;;;6.39;50.76;100882.91;5045725;28;20064;-75
2024/02/27 00:52:15;;;;;;;19.67;13.23;;;;;;;6.39;50.76;100882.91;5041193;28;20040;-75
2024/02/27 00:54:43;;;;;;;19.30;13.50;;;;;;;6.40;50.74;100882.81;5051273;28;20033;-75
2024/02/27 00:57:11;;;;;;;19.77;13.27;;;;;;;6.39;50.88;100885.63;5032201;28;20044;-75
2024/02/27 00:59:39;;;;;;;20.20;13.60;;;;;;;6.39;50.33;100899.22;5046167;28;20041;-75
2024/02/27 01:02:09;;;;;;;17.60;12.40;;;;;;;6.41;50.62;100894.56;5046168;28;20567;-75
2024/02/27 01:04:37;;;;;;;19.77;12.88;;;;;;;6.38;50.80;100900.19;5046463;28;20045;-75
2024/02/27 01:07:05;;;;;;;19.70;13.93;;;;;;;6.39;50.78;100897.38;5030133;28;20052;-75
2024/02/27 01:09:33;;;;;;;19.08;13.50;;;;;;;6.39;50.90;100899.22;5052956;28;20045;-75
2024/02/27 01:12:02;;;;;;;19.08;13.32;;;;;;;6.39;50.58;100901.94;5048668;28;20106;-75
2024/02/27 01:14:30;;;;;;;18.23;12.73;;;;;;;6.39;50.40;100907.38;5026829;28;20040;-75
2024/02/27 01:16:58;;;;;;;21.20;14.02;;;;;;;6.36;50.67;100911.22;5054155;28;20064;-75
2024/02/27 01:19:27;;;;;;;19.98;13.48;;;;;;;6.39;50.55;100904.66;5048105;28;20314;-75
2024/02/27 01:21:59;;;;;;;17.92;12.68;;;;;;;6.40;50.71;100903.69;5043284;28;20048;-75
2024/02/27 01:24:27;;;;;;;21.75;13.48;;;;;;;6.37;50.33;100912.03;5045066;28;20764;-75
2024/02/27 01:26:55;;;;;;;19.98;13.23;;;;;;;6.37;50.86;100915.63;5032675;28;20036;-75
2024/02/27 01:29:23;;;;;;;19.60;13.32;;;;;;;6.36;50.82;100916.66;5047030;28;20040;-75
2024/02/27 01:31:51;;;;;;;21.02;13.73;;;;;;;6.38;50.34;100919.22;5048744;28;20465;-75
2024/02/27 01:34:19;;;;;;;21.77;14.38;;;;;;;6.37;50.63;100912.91;5032727;28;20103;-75
2024/02/27 01:36:48;;;;;;;22.05;14.38;;;;;;;6.38;50.70;100917.38;5043733;28;20033;-75
2024/02/27 01:39:16;;;;;;;20.15;13.60;;;;;;;6.36;50.42;100911.22;5028099;28;20137;-75
2024/02/27 01:41:47;;;;;;;22.17;14.23;;;;;;;6.35;50.31;100914.91;5036160;28;20502;-75
2024/02/27 01:44:15;;;;;;;21.25;14.25;;;;;;;6.35;50.39;100916.75;5044135;28;20045;-75
2024/02/27 01:46:43;;;;;;;22.10;14.88;;;;;;;6.35;50.45;100924.91;5031979;28;20072;-75
2024/02/27 01:49:13;;;;;;;20.23;14.38;;;;;;;6.35;50.33;100925.78;5051953;28;20064;-75
2024/02/27 01:51:43;;;;;;;19.13;12.60;;;;;;;6.35;50.29;100922.19;5044668;28;20108;-75
2024/02/27 01:54:14;;;;;;;19.67;13.27;;;;;;;6.35;50.49;100930.34;5043573;28;20416;-75
2024/02/27 01:56:44;;;;;;;20.30;13.23;;;;;;;6.34;50.31;100926.75;5042127;28;20605;-74
2024/02/27 01:59:13;;;;;;;19.40;13.02;;;;;;;6.35;50.55;100927.63;5047129;28;20511;-75
2024/02/27 02:01:41;;;;;;;19.67;13.18;;;;;;;6.35;50.42;100931.22;5046033;28;20048;-75
2024/02/27 02:04:12;;;;;;;21.77;13.70;;;;;;;6.34;50.55;100932.19;5032894;28;20043;-75
2024/02/27 02:06:42;;;;;;;19.85;13.15;;;;;;;6.35;50.86;100933.94;5052998;28;20049;-75
2024/02/27 02:09:12;;;;;;;19.98;13.07;;;;;;;6.35;50.64;100938.50;5050404;28;20137;-75
2024/02/27 02:11:42;;;;;;;19.55;13.18;;;;;;;6.33;50.33;100935.00;5049134;28;20408;-75
2024/02/27 02:14:10;;;;;;;20.85;13.60;;;;;;;6.32;50.29;100945.00;5054863;28;20575;-75
2024/02/27 02:16:38;;;;;;;22.23;14.98;;;;;;;6.33;50.31;100937.72;5049535;28;20051;-75
2024/02/27 02:19:06;;;;;;;20.50;13.30;;;;;;;6.32;50.50;100930.53;5050486;28;20087;-75
2024/02/27 02:21:35;;;;;;;19.50;13.07;;;;;;;6.32;50.54;100939.56;5047289;28;20052;-75
2024/02/27 02:24:03;;;;;;;21.42;14.05;;;;;;;6.32;50.12;100938.69;5033909;28;20072;-75
2024/02/27 02:26:32;;;;;;;21.88;14.50;;;;;;;6.32;50.41;100934.13;5053820;28;20589;-75
2024/02/27 02:29:00;;;;;;;20.42;13.32;;;;;;;6.30;50.38;100933.34;5046775;28;20052;-75
2024/02/27 02:31:29;;;;;;;20.63;13.15;;;;;;;6.30;50.54;100935.19;5051759;28;20095;-75
2024/02/27 02:33:56;;;;;;;22.95;13.95;;;;;;;6.28;50.28;100938.00;5036140;28;20167;-75
2024/02/27 02:36:25;;;;;;;22.17;14.20;;;;;;;6.28;50.27;100929.03;5053882;28;20040;-75
2024/02/27 02:38:54;;;;;;;20.70;13.82;;;;;;;6.28;50.43;100942.59;5032480;28;20435;-75
2024/02/27 02:41:22;;;;;;;20.98;14.07;;;;;;;6.26;50.21;100947.28;5050513;28;20056;-75
2024/02/27 02:43:49;;;;;;;21.15;14.27;;;;;;;6.24;50.30;100949.22;5028046;28;20739;-75
2024/02/27 02:46:18;;;;;;;23.45;14.32;;;;;;;6.24;50.39;100954.66;5047126;28;20045;-75
2024/02/27 02:48:46;;;;;;;19.25;13.57;;;;;;;6.23;50.34;100953.78;5032170;28;20043;-75
2024/02/27 02:51:14;;;;;;;22.27;14.43;;;;;;;6.22;50.18;100962.03;5046360;28;20053;-75
2024/02/27 02:53:42;;;;;;;19.33;13.43;;;;;;;6.20;50.17;100956.69;5047990;28;20551;-75
2024/02/27 02:56:11;;;;;;;23.23;14.07;;;;;;;6.22;50.49;100959.31;5027531;28;20240;-75
2024/02/27 02:58:39;;;;;;;20.73;13.63;;;;;;;6.21;50.40;100965.72;5049493;28;20560;-75
2024/02/27 03:01:07;;;;;;;22.13;13.65;;;;;;;6.20;50.27;100959.41;5034612;28;20176;-75
2024/02/27 03:03:35;;;;;;;21.40;14.02;;;;;;;6.21;50.31;100969.31;5051977;28;20056;-75
2024/02/27 03:06:04;;;;;;;21.83;14.05;;;;;;;6.18;50.23;100964.09;5044150;28;20037;-75
2024/02/27 03:08:32;;;;;;;20.67;13.20;;;;;;;6.18;50.15;100969.53;5053050;28;20084;-75
2024/02/27 03:11:00;;;;;;;21.40;14.20;;;;;;;6.17;50.30;100964.19;5031204;28;20144;-75
2024/02/27 03:13:30;;;;;;;21.27;14.02;;;;;;;6.19;50.23;100967.69;5048748;28;20037;-75
2024/02/27 03:15:58;;;;;;;21.10;13.68;;;;;;;6.17;50.02;100964.19;5032148;28;20076;-75
2024/02/27 03:18:25;;;;;;;21.85;14.23;;;;;;;6.15;50.45;100972.44;5031237;28;20600;-75
2024/02/27 03:20:54;;;;;;;24.00;14.98;;;;;;;6.14;50.22;100969.81;5049379;28;20123;-75
2024/02/27 03:23:22;;;;;;;21.52;14.15;;;;;;;6.12;50.10;100966.38;5049058;28;20037;-75
2024/02/27 03:25:49;;;;;;;24.05;15.40;;;;;;;6.11;50.19;100964.63;5030464;28;20048;-75
2024/02/27 03:28:17;;;;;;;23.75;14.88;;;;;;;6.10;49.97;100965.59;5034844;28;20087;-75
2024/02/27 03:30:47;;;;;;;22.42;14.10;;;;;;;6.10;50.02;100965.59;5048100;28;20123;-75
2024/02/27 03:33:15;;;;;;;25.45;15.88;;;;;;;6.07;50.01;100962.09;5050344;28;20090;-75
2024/02/27 03:35:43;;;;;;;23.48;15.07;;;;;;;6.05;49.94;100972.19;5055010;28;20058;-75
2024/02/27 03:38:11;;;;;;;23.27;14.55;;;;;;;6.06;49.99;100973.06;5046507;28;20087;-75
2024/02/27 03:40:39;;;;;;;24.60;16.05;;;;;;;6.04;50.10;100967.72;5053632;28;20530;-75
2024/02/27 03:43:06;;;;;;;23.67;15.02;;;;;;;6.02;49.89;100966.97;5048295;28;20048;-75
2024/02/27 03:45:35;;;;;;;25.63;16.23;;;;;;;6.01;50.14;100969.78;5042879;28;20048;-75
2024/02/27 03:48:05;;;;;;;24.10;15.20;;;;;;;6.02;49.89;100972.41;5047703;28;20045;-72
2024/02/27 03:54:18;;;;;;;24.35;15.43;;;;;;;5.94;50.17;100998.34;5030299;28;20037;-76
2024/02/27 03:56:46;;;;;;;24.17;15.20;;;;;;;5.95;50.29;101000.94;5052690;28;20040;-76
2024/02/27 03:59:14;;;;;;;23.30;15.13;;;;;;;5.95;50.00;100994.66;5047927;28;20040;-76
2024/02/27 04:01:42;;;;;;;23.92;14.52;;;;;;;5.94;50.39;101003.78;5053415;28;20048;-76
2024/02/27 04:04:12;;;;;;;23.95;15.10;;;;;;;5.96;50.20;101004.53;5050760;28;20051;-75
2024/02/27 04:06:39;;;;;;;22.98;15.20;;;;;;;5.93;49.98;101002.03;5021690;28;20049;-76
2024/02/27 04:09:07;;;;;;;23.13;14.93;;;;;;;5.92;50.29;100995.72;5025875;28;20045;-76
2024/02/27 04:11:36;;;;;;;24.67;15.25;;;;;;;5.91;50.08;101010.28;5022287;28;20038;-76
2024/02/27 04:14:05;;;;;;;24.48;15.80;;;;;;;5.90;49.97;101003.09;5030554;28;20037;-76
2024/02/27 04:16:35;;;;;;;24.08;15.88;;;;;;;5.90;50.07;101005.81;5018078;28;20042;-75
2024/02/27 04:19:03;;;;;;;23.52;14.45;;;;;;;5.87;49.93;101014.16;5005929;28;20045;-76
2024/02/27 04:21:35;;;;;;;25.00;15.93;;;;;;;5.88;50.00;101007.75;5022572;28;20042;-75
2024/02/27 04:24:03;;;;;;;24.08;15.73;;;;;;;5.88;49.87;101006.88;5018433;28;20041;-75
2024/02/27 04:26:31;;;;;;;24.65;15.90;;;;;;;5.87;49.91;101013.31;5011077;28;20041;-75
2024/02/27 04:28:59;;;;;;;25.30;16.42;;;;;;;5.85;50.02;101010.69;5016437;28;20129;-75
2024/02/27 04:31:27;;;;;;;24.55;15.57;;;;;;;5.87;50.27;101013.31;5021929;28;20044;-75
2024/02/27 04:33:55;;;;;;;24.48;15.85;;;;;;;5.86;50.40;101019.72;5012072;28;20411;-76
2024/02/27 04:36:23;;;;;;;23.25;15.57;;;;;;;5.87;50.08;101026.88;5017514;28;20125;-75
2024/02/27 04:38:52;;;;;;;24.90;15.27;;;;;;;5.87;49.97;101035.88;5019040;28;20049;-75
2024/02/27 04:41:20;;;;;;;27.85;17.35;;;;;;;5.87;50.00;101043.19;5010516;28;20052;-75
2024/02/27 04:43:48;;;;;;;25.13;16.50;;;;;;;5.87;50.09;101040.47;5017661;28;20050;-76
2024/02/27 04:46:16;;;;;;;27.88;16.77;;;;;;;5.87;49.97;101044.03;5021565;28;20046;-75
2024/02/27 04:48:44;;;;;;;29.35;17.35;;;;;;;5.87;50.35;101048.63;5021213;28;20386;-75
2024/02/27 04:51:12;;;;;;;26.80;16.70;;;;;;;5.86;49.96;101045.03;5033056;28;20038;-76
2024/02/27 04:53:40;;;;;;;27.65;16.33;;;;;;;5.87;50.13;101057.59;5030670;28;20133;-75
2024/02/27 04:56:09;;;;;;;30.85;18.70;;;;;;;5.87;50.39;101057.59;5031735;28;20038;-76
2024/02/27 04:58:37;;;;;;;28.48;18.02;;;;;;;5.86;50.30;101046.88;5024795;28;20100;-75
2024/02/27 05:01:05;;;;;;;30.27;18.35;;;;;;;5.85;50.21;101053.28;5033979;28;20044;-75
2024/02/27 05:03:33;;;;;;;25.60;16.85;;;;;;;5.84;50.08;101046.09;5015024;28;20057;-76
2024/02/27 05:06:01;;;;;;;29.30;19.65;;;;;;;5.82;50.20;101048.91;5026723;28;20155;-75
2024/02/27 05:08:29;;;;;;;28.30;18.05;;;;;;;5.82;50.26;101054.34;5028477;28;20412;-75
2024/02/27 05:10:57;;;;;;;29.17;17.92;;;;;;;5.81;50.26;101059.84;5022130;28;20120;-75
2024/02/27 05:13:27;;;;;;;29.77;18.48;;;;;;;5.81;50.19;101065.28;5026571;28;20045;-76
2024/02/27 05:15:55;;;;;;;26.20;17.30;;;;;;;5.79;50.11;101067.25;5026095;28;20436;-76
2024/02/27 05:18:23;;;;;;;25.25;16.10;;;;;;;5.78;50.32;101069.09;5025561;28;20095;-75
2024/02/27 05:20:51;;;;;;;24.98;16.27;;;;;;;5.77;50.12;101075.50;5024841;28;20420;-75
2024/02/27 05:23:19;;;;;;;24.33;15.75;;;;;;;5.78;49.92;101071.81;5027599;28;20349;-76
2024/02/27 05:25:47;;;;;;;27.55;17.02;;;;;;;5.76;50.10;101072.88;5024793;28;20505;-75
2024/02/27 05:28:15;;;;;;;25.60;16.73;;;;;;;5.75;50.33;101074.72;5012878;28;20042;-76
2024/02/27 05:30:46;;;;;;;25.20;16.23;;;;;;;5.77;50.22;101078.22;5027504;28;20120;-75
2024/02/27 05:33:14;;;;;;;23.90;15.90;;;;;;;5.75;50.03;101079.28;5026623;28;20404;-76
2024/02/27 05:35:42;;;;;;;25.35;16.60;;;;;;;5.75;50.11;101087.41;5026002;28;20087;-75
2024/02/27 05:38:10;;;;;;;23.98;15.45;;;;;;;5.75;50.31;101082.84;5021145;28;20049;-75
2024/02/27 05:40:38;;;;;;;25.95;16.17;;;;;;;5.75;50.17;101084.69;5026712;28;20095;-73
2024/02/27 05:43:06;;;;;;;26.13;15.70;;;;;;;5.77;50.04;101093.63;5024394;28;20037;-75
2024/02/27 05:45:35;;;;;;;23.17;15.35;;;;;;;5.77;50.26;101089.06;5032564;28;20041;-75
2024/02/27 05:48:05;;;;;;;26.42;16.65;;;;;;;5.79;50.18;101094.41;5035488;28;20041;-75
2024/02/27 05:50:33;;;;;;;26.15;16.48;;;;;;;5.77;50.35;101090.91;5035865;28;20046;-75
2024/02/27 05:53:02;;;;;;;28.25;17.23;;;;;;;5.78;49.98;101092.66;5033036;28;20128;-75
2024/02/27 05:55:30;;;;;;;27.17;16.13;;;;;;;5.79;49.99;101102.56;5025545;28;20080;-75
2024/02/27 05:57:58;;;;;;;26.88;16.83;;;;;;;5.79;49.99;101100.69;5029781;28;20111;-75
2024/02/27 06:00:25;;;;;;;27.05;17.85;;;;;;;5.78;50.29;101101.69;5013371;28;20091;-75
2024/02/27 06:02:53;;;;;;;28.42;17.42;;;;;;;5.78;50.22;101098.09;5034143;28;20222;-76
2024/02/27 06:05:22;;;;;;;28.00;18.48;;;;;;;5.79;50.27;101095.25;5026988;28;20091;-75
2024/02/27 06:07:51;;;;;;;27.67;17.77;;;;;;;5.79;50.21;101105.28;5030327;28;20049;-75
2024/02/27 06:10:19;;;;;;;26.13;16.85;;;;;;;5.78;50.42;101112.56;5027576;28;20132;-75
2024/02/27 06:12:47;;;;;;;27.75;17.77;;;;;;;5.78;50.36;101117.97;5031018;28;20045;-75
2024/02/27 06:15:16;;;;;;;30.23;18.15;;;;;;;5.77;50.42;101118.06;5026418;28;20493;-75
2024/02/27 06:17:44;;;;;;;28.75;18.13;;;;;;;5.75;50.28;101118.16;5032937;28;20029;-75
2024/02/27 06:22:55;;;;;;;26.58;17.15;;;;;;;5.77;50.50;101137.09;5029130;28;20090;-75
2024/02/27 06:25:23;;;;;;;28.52;17.02;;;;;;;5.77;50.09;101137.97;5046604;28;20432;-76
2024/02/27 06:27:52;;;;;;;25.77;16.35;;;;;;;5.78;50.19;101138.84;5024245;28;20046;-75
2024/02/27 06:30:20;;;;;;;25.27;16.05;;;;;;;5.76;50.16;101141.63;5013263;28;20042;-75
2024/02/27 06:32:48;;;;;;;26.02;16.65;;;;;;;5.77;50.20;101143.38;5032478;28;20489;-75
2024/02/27 06:35:16;;;;;;;26.02;16.55;;;;;;;5.79;50.04;101144.13;5028444;28;20095;-74
2024/02/27 06:37:44;;;;;;;22.90;14.32;;;;;;;5.80;50.25;101153.16;5011736;28;20042;-75
2024/02/27 06:40:13;;;;;;;26.63;16.83;;;;;;;5.81;49.88;101155.78;5031437;28;20053;-75
2024/02/27 06:42:42;;;;;;;25.60;15.93;;;;;;;5.80;49.93;101161.31;5033450;28;20072;-75
2024/02/27 06:45:12;;;;;;;26.65;15.93;;;;;;;5.82;50.24;101168.41;5045671;28;20404;-75
2024/02/27 06:47:42;;;;;;;24.95;16.10;;;;;;;5.82;49.94;101176.56;5049002;28;20045;-75
2024/02/27 06:50:10;;;;;;;25.75;15.02;;;;;;;5.83;50.02;101181.03;5051216;28;20078;-75
2024/02/27 06:52:38;;;;;;;25.77;15.95;;;;;;;5.83;50.16;101177.44;5050154;28;20044;-75
2024/02/27 06:55:07;;;;;;;27.27;16.13;;;;;;;5.86;50.15;101179.97;5054737;28;20044;-75
2024/02/27 06:57:36;;;;;;;26.40;16.85;;;;;;;5.86;50.33;101182.69;5049926;28;20045;-75
2024/02/27 07:00:05;;;;;;;27.40;15.88;;;;;;;5.86;50.24;101179.97;5053383;28;20531;-75
2024/02/27 07:02:33;;;;;;;24.70;15.60;;;;;;;5.86;49.89;101182.69;5048048;28;20049;-75
2024/02/27 07:05:03;;;;;;;26.63;16.20;;;;;;;5.86;49.92;101190.81;5050181;28;20311;-75
2024/02/27 07:07:31;;;;;;;25.60;15.50;;;;;;;5.85;50.22;101187.25;5052957;28;20049;-75
2024/02/27 07:09:59;;;;;;;25.45;15.85;;;;;;;5.87;50.27;101185.28;5050492;28;20065;-75
2024/02/27 07:12:27;;;;;;;24.98;15.80;;;;;;;5.87;50.19;101196.13;5049178;28;20106;-75
2024/02/27 07:14:57;;;;;;;23.40;15.43;;;;;;;5.89;50.43;101188.78;5050598;28;20055;-75
2024/02/27 07:17:25;;;;;;;25.55;15.68;;;;;;;5.88;50.15;101195.16;5052773;28;20037;-75
2024/02/27 07:19:52;;;;;;;24.35;15.43;;;;;;;5.88;50.12;101192.47;5026498;28;20056;-75
2024/02/27 07:22:20;;;;;;;23.67;15.27;;;;;;;5.89;50.35;101194.22;5059351;28;20025;-74
2024/02/27 07:24:48;;;;;;;24.40;15.93;;;;;;;5.90;50.20;101197.81;5056196;28;20040;-74
2024/02/27 07:27:16;;;;;;;26.98;16.10;;;;;;;5.90;49.97;101189.66;5045209;28;20049;-75
2024/02/27 07:29:44;;;;;;;27.02;17.75;;;;;;;5.88;50.13;101192.47;5053344;28;20044;-75
2024/02/27 07:32:14;;;;;;;25.67;16.35;;;;;;;5.89;49.97;101187.91;5031255;28;20055;-74
2024/02/27 07:34:43;;;;;;;26.15;16.92;;;;;;;5.87;50.04;101182.56;5050459;28;20048;-75
2024/02/27 07:37:12;;;;;;;27.67;16.70;;;;;;;5.86;50.01;101186.28;5046844;28;20131;-75
2024/02/27 07:39:40;;;;;;;25.02;15.50;;;;;;;5.86;49.99;101189.00;5047763;28;20056;-75
2024/02/27 07:42:08;;;;;;;26.30;15.82;;;;;;;5.86;50.35;101191.69;5050654;28;20036;-75
2024/02/27 07:44:35;;;;;;;26.65;16.92;;;;;;;5.86;50.24;101204.41;5053275;28;20060;-75
2024/02/27 07:47:03;;;;;;;25.45;16.60;;;;;;;5.86;50.24;101205.28;5053746;28;20048;-74
2024/02/27 07:49:33;;;;;;;23.88;16.13;;;;;;;5.86;50.47;101218.00;5048922;28;20059;-75
2024/02/27 07:52:00;;;;;;;27.60;17.02;;;;;;;5.84;50.42;101215.38;5049347;28;20072;-75
2024/02/27 07:54:31;;;;;;;26.00;16.90;;;;;;;5.85;50.37;101227.09;5053251;28;20128;-74
2024/02/27 07:56:59;;;;;;;28.63;17.40;;;;;;;5.84;50.12;101230.78;5052335;28;20106;-74
2024/02/27 07:59:27;;;;;;;26.42;16.60;;;;;;;5.83;50.13;101235.34;5051862;28;20049;-74
2024/02/27 08:01:54;;;;;;;28.65;18.00;;;;;;;5.83;50.39;101243.50;5028418;28;20063;-74
2024/02/27 08:04:22;;;;;;;28.25;18.80;;;;;;;5.82;50.59;101244.47;5047083;28;20041;-75
2024/02/27 08:06:52;;;;;;;27.85;17.10;;;;;;;5.85;50.39;101254.28;5049471;28;20106;-74
2024/02/27 08:09:20;;;;;;;32.30;19.25;;;;;;;5.82;50.22;101249.88;5045464;28;20524;-74
2024/02/27 08:11:48;;;;;;;27.90;17.58;;;;;;;5.82;50.31;101249.00;5029629;28;20429;-74
2024/02/27 08:14:17;;;;;;;27.88;18.77;;;;;;;5.82;50.32;101249.88;5023993;28;20075;-75
2024/02/27 08:16:45;;;;;;;30.70;17.60;;;;;;;5.81;50.45;101259.00;5048607;28;20135;-74
2024/02/27 08:19:13;;;;;;;29.42;17.80;;;;;;;5.83;50.29;101259.78;5046672;28;20052;-74
2024/02/27 08:21:41;;;;;;;28.23;17.02;;;;;;;5.84;50.37;101260.66;5050475;28;20064;-74
2024/02/27 08:24:12;;;;;;;29.52;18.60;;;;;;;5.86;50.53;101267.75;5048826;28;20684;-74
2024/02/27 08:26:43;;;;;;;30.65;17.98;;;;;;;5.86;50.43;101261.44;5048945;28;20045;-74
2024/02/27 08:29:17;;;;;;;31.67;18.65;;;;;;;5.85;50.68;101257.88;5043164;28;20033;-75
2024/02/27 08:31:45;;;;;;;31.10;17.30;;;;;;;5.88;50.33;101265.81;5047295;28;20044;-74
2024/02/27 08:34:13;;;;;;;29.83;18.08;;;;;;;5.90;50.26;101272.03;5029655;28;20037;-74
2024/02/27 08:36:41;;;;;;;26.85;17.13;;;;;;;5.91;50.65;101267.47;5043696;28;20096;-75
2024/02/27 08:39:11;;;;;;;27.50;16.98;;;;;;;5.94;50.54;101279.03;5045522;28;20492;-75
2024/02/27 08:41:39;;;;;;;28.02;17.85;;;;;;;5.94;50.79;101287.19;5049797;28;20045;-74
2024/02/27 08:44:07;;;;;;;26.85;16.35;;;;;;;5.98;50.53;101290.56;5046653;28;20455;-74
2024/02/27 08:46:35;;;;;;;29.70;17.50;;;;;;;5.99;50.32;101287.75;5051172;28;22238;-74
2024/02/27 08:49:03;;;;;;;31.45;18.00;;;;;;;6.02;50.41;101290.31;5047599;28;20120;-74
2024/02/27 08:51:33;;;;;;;28.17;16.75;;;;;;;6.03;50.48;101291.19;5046727;28;20508;-74
2024/02/27 08:54:02;;;;;;;28.50;16.88;;;;;;;6.06;50.38;101286.41;5049784;28;20127;-74
2024/02/27 08:56:31;;;;;;;24.63;15.27;;;;;;;6.10;50.55;101288.94;5051161;28;20041;-74
2024/02/27 08:58:59;;;;;;;26.45;16.02;;;;;;;6.09;50.55;101276.31;5047876;28;20403;-74
2024/02/27 09:01:27;;;;;;;27.88;17.38;;;;;;;6.10;50.36;101280.78;5031397;28;20124;-75
2024/02/27 09:03:55;;;;;;;32.03;18.10;;;;;;;6.11;50.24;101279.81;5046918;28;20037;-74
2024/02/27 09:06:23;;;;;;;26.95;17.08;;;;;;;6.12;50.34;101278.88;5045605;28;20037;-74
2024/02/27 09:08:51;;;;;;;27.02;16.95;;;;;;;6.13;50.51;101276.03;5045548;28;20045;-74
2024/02/27 09:11:19;;;;;;;24.63;15.48;;;;;;;6.14;50.47;101276.91;5047884;28;20065;-74
2024/02/27 09:13:49;;;;;;;27.63;16.02;;;;;;;6.16;50.44;101280.41;5046398;28;20050;-74
2024/02/27 09:16:17;;;;;;;26.60;17.08;;;;;;;6.16;50.21;101273.13;5045822;28;20124;-74
2024/02/27 09:18:45;;;;;;;29.15;17.88;;;;;;;6.18;50.71;101275.75;5049831;28;20087;-74
2024/02/27 09:21:13;;;;;;;26.83;16.85;;;;;;;6.19;50.32;101280.22;5054829;28;20037;-74
2024/02/27 09:23:41;;;;;;;28.58;17.15;;;;;;;6.19;50.15;101277.50;5047409;28;20058;-74
2024/02/27 09:26:09;;;;;;;28.77;17.63;;;;;;;6.22;50.34;101291.75;5034054;28;20037;-74
2024/02/27 09:28:37;;;;;;;28.15;17.23;;;;;;;6.23;50.27;101292.63;5051604;28;20064;-74
2024/02/27 09:31:08;;;;;;;26.63;17.40;;;;;;;6.23;50.03;101282.63;5050311;28;20045;-74
2024/02/27 09:33:43;;;;;;;29.00;17.65;;;;;;;6.21;50.26;101281.84;5053925;28;20140;-74
2024/02/27 09:36:11;;;;;;;26.52;17.67;;;;;;;6.21;50.00;101280.97;5046013;28;20041;-74
2024/02/27 09:38:40;;;;;;;29.02;18.20;;;;;;;6.24;50.21;101278.06;5050884;28;20106;-74
2024/02/27 09:41:17;;;;;;;24.15;16.40;;;;;;;6.26;50.24;101287.00;5050487;28;20047;-74
2024/02/27 09:43:49;;;;;;;25.48;16.65;;;;;;;6.25;50.29;101285.25;5051241;28;20045;-74
2024/02/27 09:46:20;;;;;;;28.35;17.02;;;;;;;6.29;50.34;101284.09;5046444;28;20088;-74
2024/02/27 09:48:48;;;;;;;25.63;15.18;;;;;;;6.31;50.47;101285.75;5050313;28;20451;-74
2024/02/27 09:51:17;;;;;;;23.55;15.60;;;;;;;6.32;50.33;101294.78;5051049;28;20094;-75
2024/02/27 09:53:47;;;;;;;25.35;17.25;;;;;;;6.34;50.32;101291.00;5050345;28;20055;-74
2024/02/27 09:56:16;;;;;;;22.75;14.43;;;;;;;6.40;50.31;101290.59;5054133;28;20037;-74
2024/02/27 09:58:45;;;;;;;23.48;14.88;;;;;;;6.41;50.38;101311.38;5052717;28;20118;-74
2024/02/27 10:01:13;;;;;;;25.83;15.90;;;;;;;6.44;49.99;101318.50;5033694;28;20206;-74
2024/02/27 10:03:45;;;;;;;22.45;13.82;;;;;;;6.50;50.29;101318.09;5031046;28;20059;-74
2024/02/27 10:06:15;;;;;;;21.30;14.25;;;;;;;6.53;50.37;101319.75;5049551;28;20103;-74
2024/02/27 10:08:51;;;;;;;22.10;14.45;;;;;;;6.57;49.99;101329.44;5055185;28;20574;-74
2024/02/27 10:11:20;;;;;;;22.10;13.88;;;;;;;6.61;50.18;101336.47;5049379;28;20087;-74
2024/02/27 10:13:48;;;;;;;22.58;13.98;;;;;;;6.65;49.90;101338.00;5049426;28;20037;-74
2024/02/27 10:16:22;;;;;;;21.17;13.93;;;;;;;6.71;50.04;101338.47;5050861;28;20413;-74
2024/02/27 10:18:51;;;;;;;22.20;13.77;;;;;;;6.75;49.95;101341.91;5050068;28;20146;-74
2024/02/27 10:21:20;;;;;;;21.67;13.60;;;;;;;6.77;49.73;101351.72;5031000;28;20132;-74
2024/02/27 10:23:48;;;;;;;24.92;15.00;;;;;;;6.80;49.72;101356.97;5050390;28;20048;-74
2024/02/27 10:26:16;;;;;;;22.10;14.32;;;;;;;6.82;49.80;101355.03;5046369;28;20041;-74
2024/02/27 10:28:44;;;;;;;20.67;13.65;;;;;;;6.85;49.78;101344.94;5045352;28;20581;-74
2024/02/27 10:31:13;;;;;;;21.00;13.65;;;;;;;6.88;49.52;101347.44;5055508;28;20072;-73
2024/02/27 10:33:43;;;;;;;21.05;14.80;;;;;;;6.87;49.43;101345.69;5057139;28;20053;-73
2024/02/27 10:36:12;;;;;;;22.23;14.18;;;;;;;6.90;49.48;101348.22;5050989;28;20456;-72
2024/02/27 10:38:44;;;;;;;20.83;13.80;;;;;;;6.90;49.39;101348.22;5051077;28;20045;-72
2024/02/27 10:41:12;;;;;;;22.83;14.50;;;;;;;6.91;49.31;101341.78;5055303;28;20479;-72
2024/02/27 10:43:40;;;;;;;23.88;14.57;;;;;;;6.92;49.29;101341.72;5051662;28;20041;-72
2024/02/27 10:46:08;;;;;;;21.63;14.63;;;;;;;6.96;49.28;101345.09;5057962;28;20044;-72
2024/02/27 10:48:36;;;;;;;22.40;13.60;;;;;;;6.98;49.65;101338.59;5057211;28;20131;-72
2024/02/27 10:51:14;;;;;;;23.95;14.82;;;;;;;7.03;49.62;101351.88;5056221;28;20532;-72
2024/02/27 10:53:43;;;;;;;22.88;14.90;;;;;;;7.06;49.81;101347.13;5054088;28;20056;-72
2024/02/27 10:56:11;;;;;;;24.10;15.30;;;;;;;7.09;49.48;101346.94;5056268;28;20053;-72
2024/02/27 10:58:40;;;;;;;25.02;16.23;;;;;;;7.11;49.60;101347.69;5057437;28;20120;-72
2024/02/27 11:01:08;;;;;;;22.05;14.50;;;;;;;7.16;49.25;101340.09;5056147;28;20095;-72
2024/02/27 11:03:41;;;;;;;22.13;14.05;;;;;;;7.19;48.76;101339.88;5052613;28;20570;-72
2024/02/27 11:06:14;;;;;;;21.92;14.85;;;;;;;7.20;49.04;101341.63;5052948;28;20041;-72
2024/02/27 11:08:46;;;;;;;22.00;14.20;;;;;;;7.24;49.08;101339.59;5048931;28;20048;-72
2024/02/27 11:11:15;;;;;;;20.50;14.18;;;;;;;7.26;49.15;101339.50;5050704;28;20569;-72
2024/02/27 11:13:47;;;;;;;21.65;14.02;;;;;;;7.28;48.71;101326.63;5044489;28;20793;-72
2024/02/27 11:16:20;;;;;;;22.08;15.18;;;;;;;7.26;48.61;101329.50;5050451;28;20110;-71
2024/02/27 11:19:11;;;;;;;22.17;14.73;;;;;;;7.30;48.76;101321.97;5119172;23;20037;-74
2024/02/27 11:21:41;;;;;;;21.00;14.07;;;;;;;7.33;48.59;101324.50;5017281;28;20056;-74
2024/02/27 11:24:09;;;;;;;22.55;14.90;;;;;;;7.31;48.51;101315.56;5016226;28;20047;-74
2024/02/27 11:26:38;;;;;;;22.80;15.40;;;;;;;7.33;48.67;101328.09;5026497;28;20281;-74
2024/02/27 11:29:07;;;;;;;21.85;14.57;;;;;;;7.35;48.40;101323.44;5060389;23;20050;-76